sensor_id;sensor_type;location;lat;lon;timestamp;P1;durP1;ratioP1;P2;durP2;ratioP2
19235;SDS011;9752;54.270;12.470;2024-02-28T00:02:12;38.73;;;17.97;;
19235;SDS011;9752;54.270;12.470;2024-02-28T00:07:13;40.27;;;19.50;;
19235;SDS011;9752;54.270;12.470;2024-02-28T00:12:15;24.07;;;14.40;;
19235;SDS011;9752;54.270;12.470;2024-02-28T00:17:18;19.13;;;11.20;;
19235;SDS011;9752;54.270;12.470;2024-02-28T00:22:20;18.27;;;11.93;;
19235;SDS011;9752;54.270;12.470;2024-02-28T00:27:21;25.70;;;14.43;;
19235;SDS011;9752;54.270;12.470;2024-02-28T00:32:24;27.37;;;15.33;;
19235;SDS011;9752;54.270;12.470;2024-02-28T00:37:26;22.53;;;13.47;;
19235;SDS011;9752;54.270;12.470;2024-02-28T00:42:28;28.20;;;14.30;;
19235;SDS011;9752;54.270;12.470;2024-02-28T00:47:31;30.07;;;14.57;;
19235;SDS011;9752;54.270;12.470;2024-02-28T00:52:32;22.23;;;12.63;;
19235;SDS011;9752;54.270;12.470;2024-02-28T00:57:34;30.27;;;15.00;;
19235;SDS011;9752;54.270;12.470;2024-02-28T01:02:37;18.73;;;11.60;;
19235;SDS011;9752;54.270;12.470;2024-02-28T01:07:39;26.47;;;14.47;;
19235;SDS011;9752;54.270;12.470;2024-02-28T01:12:41;20.90;;;11.60;;
19235;SDS011;9752;54.270;12.470;2024-02-28T01:17:44;17.23;;;10.93;;
19235;SDS011;9752;54.270;12.470;2024-02-28T01:22:45;21.07;;;13.23;;
19235;SDS011;9752;54.270;12.470;2024-02-28T01:27:47;19.03;;;11.53;;
19235;SDS011;9752;54.270;12.470;2024-02-28T01:32:50;18.67;;;11.47;;
19235;SDS011;9752;54.270;12.470;2024-02-28T01:37:52;18.37;;;11.97;;
19235;SDS011;9752;54.270;12.470;2024-02-28T01:42:54;26.40;;;14.23;;
19235;SDS011;9752;54.270;12.470;2024-02-28T01:47:57;16.37;;;11.07;;
19235;SDS011;9752;54.270;12.470;2024-02-28T01:52:58;16.23;;;10.70;;
19235;SDS011;9752;54.270;12.470;2024-02-28T01:58:01;17.43;;;11.40;;
19235;SDS011;9752;54.270;12.470;2024-02-28T02:03:06;13.70;;;10.47;;
19235;SDS011;9752;54.270;12.470;2024-02-28T02:08:08;15.37;;;10.27;;
19235;SDS011;9752;54.270;12.470;2024-02-28T02:13:10;15.77;;;11.73;;
19235;SDS011;9752;54.270;12.470;2024-02-28T02:18:13;13.57;;;10.33;;
19235;SDS011;9752;54.270;12.470;2024-02-28T02:23:16;17.03;;;10.73;;
19235;SDS011;9752;54.270;12.470;2024-02-28T02:28:18;14.97;;;10.77;;
19235;SDS011;9752;54.270;12.470;2024-02-28T02:33:19;15.93;;;9.87;;
19235;SDS011;9752;54.270;12.470;2024-02-28T02:38:22;15.90;;;11.53;;
19235;SDS011;9752;54.270;12.470;2024-02-28T02:43:24;16.67;;;9.93;;
19235;SDS011;9752;54.270;12.470;2024-02-28T02:48:26;16.63;;;11.00;;
19235;SDS011;9752;54.270;12.470;2024-02-28T02:53:29;14.47;;;10.43;;
19235;SDS011;9752;54.270;12.470;2024-02-28T02:58:30;14.87;;;10.03;;
19235;SDS011;9752;54.270;12.470;2024-02-28T03:03:32;16.60;;;11.10;;
19235;SDS011;9752;54.270;12.470;2024-02-28T03:08:35;18.43;;;11.70;;
19235;SDS011;9752;54.270;12.470;2024-02-28T03:13:36;14.60;;;10.17;;
19235;SDS011;9752;54.270;12.470;2024-02-28T03:18:38;17.63;;;11.87;;
19235;SDS011;9752;54.270;12.470;2024-02-28T03:23:41;17.97;;;13.37;;
19235;SDS011;9752;54.270;12.470;2024-02-28T03:28:43;20.47;;;12.37;;
19235;SDS011;9752;54.270;12.470;2024-02-28T03:33:45;22.63;;;15.63;;
19235;SDS011;9752;54.270;12.470;2024-02-28T03:38:48;21.97;;;14.03;;
19235;SDS011;9752;54.270;12.470;2024-02-28T03:43:50;19.80;;;12.90;;
19235;SDS011;9752;54.270;12.470;2024-02-28T03:48:51;15.70;;;11.33;;
19235;SDS011;9752;54.270;12.470;2024-02-28T03:53:54;14.73;;;10.83;;
19235;SDS011;9752;54.270;12.470;2024-02-28T03:58:56;15.83;;;11.60;;
19235;SDS011;9752;54.270;12.470;2024-02-28T04:03:58;16.83;;;12.57;;
19235;SDS011;9752;54.270;12.470;2024-02-28T04:09:01;24.00;;;14.93;;
19235;SDS011;9752;54.270;12.470;2024-02-28T04:14:03;23.80;;;15.17;;
19235;SDS011;9752;54.270;12.470;2024-02-28T04:19:04;27.00;;;17.20;;
19235;SDS011;9752;54.270;12.470;2024-02-28T04:24:07;29.07;;;15.83;;
19235;SDS011;9752;54.270;12.470;2024-02-28T04:29:10;22.87;;;13.90;;
19235;SDS011;9752;54.270;12.470;2024-02-28T04:34:14;25.00;;;14.27;;
19235;SDS011;9752;54.270;12.470;2024-02-28T04:39:17;38.00;;;19.87;;
19235;SDS011;9752;54.270;12.470;2024-02-28T04:44:18;30.10;;;17.97;;
19235;SDS011;9752;54.270;12.470;2024-02-28T04:49:20;28.80;;;16.87;;
19235;SDS011;9752;54.270;12.470;2024-02-28T04:54:24;19.67;;;13.27;;
19235;SDS011;9752;54.270;12.470;2024-02-28T04:59:26;24.20;;;15.50;;
19235;SDS011;9752;54.270;12.470;2024-02-28T05:04:28;18.27;;;13.47;;
19235;SDS011;9752;54.270;12.470;2024-02-28T05:09:31;14.23;;;11.40;;
19235;SDS011;9752;54.270;12.470;2024-02-28T05:14:32;15.93;;;12.47;;
19235;SDS011;9752;54.270;12.470;2024-02-28T05:19:34;23.57;;;15.97;;
19235;SDS011;9752;54.270;12.470;2024-02-28T05:24:37;24.93;;;16.87;;
19235;SDS011;9752;54.270;12.470;2024-02-28T05:29:39;21.57;;;15.13;;
19235;SDS011;9752;54.270;12.470;2024-02-28T05:34:41;25.67;;;16.73;;
19235;SDS011;9752;54.270;12.470;2024-02-28T05:39:44;31.13;;;20.43;;
19235;SDS011;9752;54.270;12.470;2024-02-28T05:44:46;31.47;;;19.13;;
19235;SDS011;9752;54.270;12.470;2024-02-28T05:49:48;23.87;;;16.87;;
19235;SDS011;9752;54.270;12.470;2024-02-28T05:54:51;27.50;;;17.73;;
19235;SDS011;9752;54.270;12.470;2024-02-28T05:59:53;42.10;;;24.83;;
19235;SDS011;9752;54.270;12.470;2024-02-28T06:04:54;42.60;;;23.20;;
19235;SDS011;9752;54.270;12.470;2024-02-28T06:09:57;40.93;;;25.43;;
19235;SDS011;9752;54.270;12.470;2024-02-28T06:14:59;54.57;;;30.03;;
19235;SDS011;9752;54.270;12.470;2024-02-28T06:20:01;31.03;;;19.90;;
19235;SDS011;9752;54.270;12.470;2024-02-28T06:25:06;55.17;;;28.07;;
19235;SDS011;9752;54.270;12.470;2024-02-28T06:30:13;48.27;;;24.07;;
19235;SDS011;9752;54.270;12.470;2024-02-28T06:35:17;53.57;;;27.73;;
19235;SDS011;9752;54.270;12.470;2024-02-28T06:40:20;50.70;;;24.77;;
19235;SDS011;9752;54.270;12.470;2024-02-28T06:45:22;54.80;;;23.03;;
19235;SDS011;9752;54.270;12.470;2024-02-28T06:50:23;50.00;;;23.83;;
19235;SDS011;9752;54.270;12.470;2024-02-28T06:55:26;76.70;;;31.30;;
19235;SDS011;9752;54.270;12.470;2024-02-28T07:00:28;67.90;;;29.70;;
19235;SDS011;9752;54.270;12.470;2024-02-28T07:05:30;46.87;;;24.50;;
19235;SDS011;9752;54.270;12.470;2024-02-28T07:10:33;51.40;;;25.40;;
19235;SDS011;9752;54.270;12.470;2024-02-28T07:15:34;51.33;;;25.67;;
19235;SDS011;9752;54.270;12.470;2024-02-28T07:20:36;50.70;;;26.27;;
19235;SDS011;9752;54.270;12.470;2024-02-28T07:25:39;58.07;;;26.37;;
19235;SDS011;9752;54.270;12.470;2024-02-28T07:30:40;55.27;;;28.47;;
19235;SDS011;9752;54.270;12.470;2024-02-28T07:35:44;52.20;;;25.40;;
19235;SDS011;9752;54.270;12.470;2024-02-28T07:40:48;43.93;;;22.83;;
19235;SDS011;9752;54.270;12.470;2024-02-28T07:45:49;39.67;;;20.37;;
19235;SDS011;9752;54.270;12.470;2024-02-28T07:50:51;42.60;;;21.43;;
19235;SDS011;9752;54.270;12.470;2024-02-28T07:55:54;45.27;;;21.30;;
19235;SDS011;9752;54.270;12.470;2024-02-28T08:00:56;58.50;;;24.30;;
19235;SDS011;9752;54.270;12.470;2024-02-28T08:05:57;42.97;;;21.63;;
19235;SDS011;9752;54.270;12.470;2024-02-28T08:11:00;54.73;;;25.63;;
19235;SDS011;9752;54.270;12.470;2024-02-28T08:16:03;39.13;;;18.83;;
19235;SDS011;9752;54.270;12.470;2024-02-28T08:21:08;49.33;;;21.63;;
19235;SDS011;9752;54.270;12.470;2024-02-28T08:26:11;53.50;;;23.10;;
19235;SDS011;9752;54.270;12.470;2024-02-28T08:31:13;38.13;;;18.83;;
19235;SDS011;9752;54.270;12.470;2024-02-28T08:36:15;38.77;;;20.67;;
19235;SDS011;9752;54.270;12.470;2024-02-28T08:41:18;35.07;;;20.70;;
19235;SDS011;9752;54.270;12.470;2024-02-28T08:46:19;41.17;;;20.63;;
19235;SDS011;9752;54.270;12.470;2024-02-28T08:51:21;37.43;;;20.90;;
19235;SDS011;9752;54.270;12.470;2024-02-28T08:56:24;41.10;;;21.23;;
19235;SDS011;9752;54.270;12.470;2024-02-28T09:01:26;40.57;;;20.43;;
19235;SDS011;9752;54.270;12.470;2024-02-28T09:06:27;35.60;;;19.97;;
19235;SDS011;9752;54.270;12.470;2024-02-28T09:11:30;32.47;;;19.87;;
19235;SDS011;9752;54.270;12.470;2024-02-28T09:16:32;39.13;;;21.80;;
19235;SDS011;9752;54.270;12.470;2024-02-28T09:21:33;41.67;;;21.87;;
19235;SDS011;9752;54.270;12.470;2024-02-28T09:26:39;42.80;;;24.20;;
19235;SDS011;9752;54.270;12.470;2024-02-28T09:31:41;42.37;;;22.70;;
19235;SDS011;9752;54.270;12.470;2024-02-28T09:36:43;38.57;;;22.93;;
19235;SDS011;9752;54.270;12.470;2024-02-28T09:41:47;40.03;;;22.90;;
19235;SDS011;9752;54.270;12.470;2024-02-28T09:46:50;42.23;;;25.10;;
19235;SDS011;9752;54.270;12.470;2024-02-28T09:51:53;38.70;;;23.27;;
19235;SDS011;9752;54.270;12.470;2024-02-28T09:56:56;36.20;;;21.87;;
19235;SDS011;9752;54.270;12.470;2024-02-28T10:01:58;35.60;;;22.93;;
19235;SDS011;9752;54.270;12.470;2024-02-28T10:07:09;41.03;;;26.23;;
19235;SDS011;9752;54.270;12.470;2024-02-28T10:12:14;46.33;;;27.77;;
19235;SDS011;9752;54.270;12.470;2024-02-28T10:17:16;45.77;;;30.23;;
19235;SDS011;9752;54.270;12.470;2024-02-28T10:22:17;44.37;;;28.13;;
19235;SDS011;9752;54.270;12.470;2024-02-28T10:27:20;48.23;;;31.03;;
19235;SDS011;9752;54.270;12.470;2024-02-28T10:32:22;43.57;;;28.07;;
19235;SDS011;9752;54.270;12.470;2024-02-28T10:37:24;43.00;;;28.93;;
19235;SDS011;9752;54.270;12.470;2024-02-28T10:42:28;50.83;;;31.10;;
19235;SDS011;9752;54.270;12.470;2024-02-28T10:47:31;50.77;;;32.37;;
19235;SDS011;9752;54.270;12.470;2024-02-28T10:52:33;52.73;;;35.23;;
19235;SDS011;9752;54.270;12.470;2024-02-28T10:57:37;48.63;;;34.20;;
19235;SDS011;9752;54.270;12.470;2024-02-28T11:02:40;51.27;;;32.77;;
19235;SDS011;9752;54.270;12.470;2024-02-28T11:07:43;47.10;;;32.73;;
19235;SDS011;9752;54.270;12.470;2024-02-28T11:12:54;51.60;;;33.80;;
19235;SDS011;9752;54.270;12.470;2024-02-28T11:18:06;41.57;;;29.53;;
19235;SDS011;9752;54.270;12.470;2024-02-28T11:23:08;49.93;;;33.90;;
19235;SDS011;9752;54.270;12.470;2024-02-28T11:28:12;48.80;;;32.03;;
19235;SDS011;9752;54.270;12.470;2024-02-28T11:33:15;51.57;;;33.53;;
19235;SDS011;9752;54.270;12.470;2024-02-28T11:38:18;40.70;;;29.27;;
19235;SDS011;9752;54.270;12.470;2024-02-28T11:43:22;39.83;;;26.77;;
19235;SDS011;9752;54.270;12.470;2024-02-28T11:48:24;39.33;;;28.23;;
19235;SDS011;9752;54.270;12.470;2024-02-28T11:53:26;39.63;;;29.17;;
19235;SDS011;9752;54.270;12.470;2024-02-28T11:58:29;38.10;;;29.07;;
19235;SDS011;9752;54.270;12.470;2024-02-28T12:03:31;39.77;;;28.43;;
19235;SDS011;9752;54.270;12.470;2024-02-28T12:08:33;39.00;;;29.53;;
19235;SDS011;9752;54.270;12.470;2024-02-28T12:13:36;36.23;;;27.20;;
19235;SDS011;9752;54.270;12.470;2024-02-28T12:18:38;37.13;;;26.33;;
19235;SDS011;9752;54.270;12.470;2024-02-28T12:23:39;38.00;;;25.90;;
19235;SDS011;9752;54.270;12.470;2024-02-28T12:28:43;35.73;;;24.50;;
19235;SDS011;9752;54.270;12.470;2024-02-28T12:33:44;37.10;;;24.90;;
19235;SDS011;9752;54.270;12.470;2024-02-28T12:38:46;37.30;;;26.63;;
19235;SDS011;9752;54.270;12.470;2024-02-28T12:43:50;39.73;;;27.47;;
19235;SDS011;9752;54.270;12.470;2024-02-28T12:48:51;38.93;;;26.67;;
19235;SDS011;9752;54.270;12.470;2024-02-28T12:53:53;36.87;;;25.80;;
19235;SDS011;9752;54.270;12.470;2024-02-28T12:58:57;36.37;;;26.07;;
19235;SDS011;9752;54.270;12.470;2024-02-28T13:04:00;38.10;;;28.73;;
19235;SDS011;9752;54.270;12.470;2024-02-28T13:09:02;37.63;;;27.10;;
19235;SDS011;9752;54.270;12.470;2024-02-28T13:14:06;40.90;;;27.80;;
19235;SDS011;9752;54.270;12.470;2024-02-28T13:19:09;43.00;;;28.87;;
19235;SDS011;9752;54.270;12.470;2024-02-28T13:24:11;42.87;;;30.23;;
19235;SDS011;9752;54.270;12.470;2024-02-28T13:29:16;41.80;;;28.87;;
19235;SDS011;9752;54.270;12.470;2024-02-28T13:34:18;44.93;;;31.03;;
19235;SDS011;9752;54.270;12.470;2024-02-28T13:39:19;75.13;;;46.20;;
19235;SDS011;9752;54.270;12.470;2024-02-28T13:44:24;41.23;;;30.47;;
19235;SDS011;9752;54.270;12.470;2024-02-28T13:49:28;43.47;;;28.57;;
19235;SDS011;9752;54.270;12.470;2024-02-28T13:54:29;39.23;;;26.33;;
19235;SDS011;9752;54.270;12.470;2024-02-28T13:59:32;43.63;;;29.97;;
19235;SDS011;9752;54.270;12.470;2024-02-28T14:04:34;42.50;;;30.17;;
19235;SDS011;9752;54.270;12.470;2024-02-28T14:09:36;41.83;;;29.13;;
19235;SDS011;9752;54.270;12.470;2024-02-28T14:14:39;44.17;;;30.23;;
19235;SDS011;9752;54.270;12.470;2024-02-28T14:19:40;42.73;;;30.23;;
19235;SDS011;9752;54.270;12.470;2024-02-28T14:24:42;45.07;;;29.93;;
19235;SDS011;9752;54.270;12.470;2024-02-28T14:29:45;39.43;;;27.80;;
19235;SDS011;9752;54.270;12.470;2024-02-28T14:34:47;41.20;;;28.73;;
19235;SDS011;9752;54.270;12.470;2024-02-28T14:39:49;38.47;;;27.47;;
19235;SDS011;9752;54.270;12.470;2024-02-28T14:44:52;41.27;;;28.70;;
19235;SDS011;9752;54.270;12.470;2024-02-28T14:49:54;38.40;;;27.90;;
19235;SDS011;9752;54.270;12.470;2024-02-28T14:54:56;36.53;;;26.13;;
19235;SDS011;9752;54.270;12.470;2024-02-28T15:00:00;37.30;;;26.50;;
19235;SDS011;9752;54.270;12.470;2024-02-28T15:05:07;39.03;;;27.07;;
19235;SDS011;9752;54.270;12.470;2024-02-28T15:10:09;32.50;;;25.33;;
19235;SDS011;9752;54.270;12.470;2024-02-28T15:15:15;39.20;;;24.77;;
19235;SDS011;9752;54.270;12.470;2024-02-28T15:20:16;36.60;;;25.93;;
19235;SDS011;9752;54.270;12.470;2024-02-28T15:25:18;35.70;;;25.33;;
19235;SDS011;9752;54.270;12.470;2024-02-28T15:30:21;33.00;;;23.83;;
19235;SDS011;9752;54.270;12.470;2024-02-28T15:35:23;39.77;;;26.10;;
19235;SDS011;9752;54.270;12.470;2024-02-28T15:40:25;38.33;;;25.03;;
19235;SDS011;9752;54.270;12.470;2024-02-28T15:45:28;38.63;;;26.67;;
19235;SDS011;9752;54.270;12.470;2024-02-28T15:50:30;38.37;;;26.37;;
19235;SDS011;9752;54.270;12.470;2024-02-28T15:55:33;47.77;;;29.93;;
19235;SDS011;9752;54.270;12.470;2024-02-28T16:00:36;39.07;;;27.13;;
19235;SDS011;9752;54.270;12.470;2024-02-28T16:05:38;55.50;;;35.27;;
19235;SDS011;9752;54.270;12.470;2024-02-28T16:10:39;41.60;;;27.37;;
19235;SDS011;9752;54.270;12.470;2024-02-28T16:15:43;42.30;;;30.93;;
19235;SDS011;9752;54.270;12.470;2024-02-28T16:20:44;37.57;;;26.50;;
19235;SDS011;9752;54.270;12.470;2024-02-28T16:25:46;34.47;;;23.97;;
19235;SDS011;9752;54.270;12.470;2024-02-28T16:30:51;34.23;;;25.37;;
19235;SDS011;9752;54.270;12.470;2024-02-28T16:35:53;42.73;;;28.53;;
19235;SDS011;9752;54.270;12.470;2024-02-28T16:40:54;44.70;;;30.03;;
19235;SDS011;9752;54.270;12.470;2024-02-28T16:45:57;43.17;;;27.37;;
19235;SDS011;9752;54.270;12.470;2024-02-28T16:51:00;37.57;;;26.67;;
19235;SDS011;9752;54.270;12.470;2024-02-28T16:56:01;40.63;;;26.63;;
19235;SDS011;9752;54.270;12.470;2024-02-28T17:01:05;40.77;;;28.67;;
19235;SDS011;9752;54.270;12.470;2024-02-28T17:06:07;41.83;;;28.07;;
19235;SDS011;9752;54.270;12.470;2024-02-28T17:11:09;47.27;;;31.13;;
19235;SDS011;9752;54.270;12.470;2024-02-28T17:16:13;50.97;;;34.13;;
19235;SDS011;9752;54.270;12.470;2024-02-28T17:21:17;43.37;;;26.63;;
19235;SDS011;9752;54.270;12.470;2024-02-28T17:26:19;42.37;;;28.73;;
19235;SDS011;9752;54.270;12.470;2024-02-28T17:31:22;49.37;;;33.27;;
19235;SDS011;9752;54.270;12.470;2024-02-28T17:36:24;38.77;;;27.13;;
19235;SDS011;9752;54.270;12.470;2024-02-28T17:41:25;40.17;;;27.37;;
19235;SDS011;9752;54.270;12.470;2024-02-28T17:46:29;41.70;;;27.37;;
19235;SDS011;9752;54.270;12.470;2024-02-28T17:51:31;40.87;;;26.33;;
19235;SDS011;9752;54.270;12.470;2024-02-28T17:56:35;41.53;;;26.57;;
19235;SDS011;9752;54.270;12.470;2024-02-28T18:01:40;40.30;;;27.60;;
19235;SDS011;9752;54.270;12.470;2024-02-28T18:06:43;44.03;;;27.43;;
19235;SDS011;9752;54.270;12.470;2024-02-28T18:11:44;40.60;;;25.90;;
19235;SDS011;9752;54.270;12.470;2024-02-28T18:16:47;38.73;;;25.80;;
19235;SDS011;9752;54.270;12.470;2024-02-28T18:21:51;42.13;;;26.73;;
19235;SDS011;9752;54.270;12.470;2024-02-28T18:26:53;43.73;;;28.33;;
19235;SDS011;9752;54.270;12.470;2024-02-28T18:31:56;41.50;;;25.53;;
19235;SDS011;9752;54.270;12.470;2024-02-28T18:36:58;36.30;;;24.93;;
19235;SDS011;9752;54.270;12.470;2024-02-28T18:42:00;45.47;;;28.17;;
19235;SDS011;9752;54.270;12.470;2024-02-28T18:47:04;50.70;;;31.77;;
19235;SDS011;9752;54.270;12.470;2024-02-28T18:52:06;37.63;;;24.07;;
19235;SDS011;9752;54.270;12.470;2024-02-28T18:57:08;39.97;;;24.57;;
19235;SDS011;9752;54.270;12.470;2024-02-28T19:02:12;43.20;;;26.77;;
19235;SDS011;9752;54.270;12.470;2024-02-28T19:07:13;33.47;;;22.13;;
19235;SDS011;9752;54.270;12.470;2024-02-28T19:12:16;39.57;;;24.73;;
19235;SDS011;9752;54.270;12.470;2024-02-28T19:17:19;39.97;;;25.70;;
19235;SDS011;9752;54.270;12.470;2024-02-28T19:22:21;38.53;;;24.23;;
19235;SDS011;9752;54.270;12.470;2024-02-28T19:27:23;35.30;;;23.67;;
19235;SDS011;9752;54.270;12.470;2024-02-28T19:32:26;42.17;;;22.90;;
19235;SDS011;9752;54.270;12.470;2024-02-28T19:37:28;36.57;;;22.07;;
19235;SDS011;9752;54.270;12.470;2024-02-28T19:42:29;38.33;;;24.37;;
19235;SDS011;9752;54.270;12.470;2024-02-28T19:47:33;37.17;;;24.00;;
19235;SDS011;9752;54.270;12.470;2024-02-28T19:52:35;35.23;;;22.30;;
19235;SDS011;9752;54.270;12.470;2024-02-28T19:57:38;37.43;;;23.00;;
19235;SDS011;9752;54.270;12.470;2024-02-28T20:02:41;38.50;;;24.13;;
19235;SDS011;9752;54.270;12.470;2024-02-28T20:07:43;36.97;;;22.97;;
19235;SDS011;9752;54.270;12.470;2024-02-28T20:12:45;35.07;;;22.37;;
19235;SDS011;9752;54.270;12.470;2024-02-28T20:17:48;36.63;;;22.90;;
19235;SDS011;9752;54.270;12.470;2024-02-28T20:22:54;36.70;;;24.20;;
19235;SDS011;9752;54.270;12.470;2024-02-28T20:27:55;34.77;;;21.90;;
19235;SDS011;9752;54.270;12.470;2024-02-28T20:32:59;41.50;;;24.37;;
19235;SDS011;9752;54.270;12.470;2024-02-28T20:38:01;38.13;;;24.20;;
19235;SDS011;9752;54.270;12.470;2024-02-28T20:43:03;40.13;;;23.37;;
19235;SDS011;9752;54.270;12.470;2024-02-28T20:48:06;38.87;;;22.40;;
19235;SDS011;9752;54.270;12.470;2024-02-28T20:53:08;36.30;;;22.33;;
19235;SDS011;9752;54.270;12.470;2024-02-28T20:58:10;38.97;;;23.60;;
19235;SDS011;9752;54.270;12.470;2024-02-28T21:03:13;34.47;;;22.63;;
19235;SDS011;9752;54.270;12.470;2024-02-28T21:08:14;33.27;;;22.30;;
19235;SDS011;9752;54.270;12.470;2024-02-28T21:13:16;34.87;;;24.30;;
19235;SDS011;9752;54.270;12.470;2024-02-28T21:18:20;37.50;;;23.13;;
19235;SDS011;9752;54.270;12.470;2024-02-28T21:23:21;40.03;;;23.97;;
19235;SDS011;9752;54.270;12.470;2024-02-28T21:28:23;43.60;;;25.37;;
19235;SDS011;9752;54.270;12.470;2024-02-28T21:33:26;38.63;;;23.47;;
19235;SDS011;9752;54.270;12.470;2024-02-28T21:38:28;37.17;;;23.37;;
19235;SDS011;9752;54.270;12.470;2024-02-28T21:43:30;39.63;;;24.83;;
19235;SDS011;9752;54.270;12.470;2024-02-28T21:48:33;37.67;;;23.93;;
19235;SDS011;9752;54.270;12.470;2024-02-28T21:53:34;40.23;;;24.27;;
19235;SDS011;9752;54.270;12.470;2024-02-28T21:58:37;41.77;;;26.93;;
19235;SDS011;9752;54.270;12.470;2024-02-28T22:03:40;35.03;;;22.37;;
19235;SDS011;9752;54.270;12.470;2024-02-28T22:08:41;37.97;;;23.37;;
19235;SDS011;9752;54.270;12.470;2024-02-28T22:13:43;44.20;;;26.07;;
19235;SDS011;9752;54.270;12.470;2024-02-28T22:18:46;36.13;;;25.17;;
19235;SDS011;9752;54.270;12.470;2024-02-28T22:23:48;38.70;;;24.70;;
19235;SDS011;9752;54.270;12.470;2024-02-28T22:28:49;36.63;;;22.67;;
19235;SDS011;9752;54.270;12.470;2024-02-28T22:33:53;40.63;;;26.73;;
19235;SDS011;9752;54.270;12.470;2024-02-28T22:38:55;37.37;;;23.53;;
19235;SDS011;9752;54.270;12.470;2024-02-28T22:43:56;37.50;;;23.67;;
19235;SDS011;9752;54.270;12.470;2024-02-28T22:49:00;39.43;;;24.93;;
19235;SDS011;9752;54.270;12.470;2024-02-28T22:54:03;34.90;;;23.80;;
19235;SDS011;9752;54.270;12.470;2024-02-28T22:59:05;40.80;;;26.77;;
19235;SDS011;9752;54.270;12.470;2024-02-28T23:04:08;37.73;;;25.00;;
19235;SDS011;9752;54.270;12.470;2024-02-28T23:09:10;39.73;;;24.93;;
19235;SDS011;9752;54.270;12.470;2024-02-28T23:14:14;39.77;;;26.17;;
19235;SDS011;9752;54.270;12.470;2024-02-28T23:19:19;38.77;;;25.53;;
19235;SDS011;9752;54.270;12.470;2024-02-28T23:24:21;40.33;;;25.97;;
19235;SDS011;9752;54.270;12.470;2024-02-28T23:29:23;36.93;;;25.50;;
19235;SDS011;9752;54.270;12.470;2024-02-28T23:34:26;40.13;;;26.17;;
19235;SDS011;9752;54.270;12.470;2024-02-28T23:39:28;39.00;;;26.17;;
19235;SDS011;9752;54.270;12.470;2024-02-28T23:44:29;38.70;;;26.93;;
19235;SDS011;9752;54.270;12.470;2024-02-28T23:49:32;39.57;;;26.00;;
19235;SDS011;9752;54.270;12.470;2024-02-28T23:54:34;39.23;;;25.77;;
19235;SDS011;9752;54.270;12.470;2024-02-28T23:59:36;42.83;;;25.90;;
